Terminal Aerodrome Forecast
Issued by NWS

Current Version | Previous Version | Graphics & Text | Print | Product List | Glossary On
Versions: 1 2 3 4 5 6 7 8 9 10 11 12 13 14 15 16 17 18 19 20
000
FTUS41 KILN 172321
TAFLUK
TAF
KLUK 172321Z 1800/1824 VRB03KT P6SM FEW050
     FM180500 00000KT 3SM BR SKC
      TEMPO 1805/1809 1SM BR SCT002
     FM180900 00000KT 1/4SM FG BKN002
     FM181100 00000KT 2SM BR BKN002
     FM181300 VRB02KT P6SM SKC
     FM181500 VRB03KT P6SM SCT050=

USA.gov is the U.S. government's official web portal to all federal, state and local government web resources and services.